Time;durP1;ratioP1;P1;durP2;ratioP2;P2;SDS_P1;SDS_P2;PMS_P1;PMS_P2;Temp;Humidity;BMP_temperature;BMP_pressure;BME280_temperature;BME280_humidity;BME280_pressure;Samples;Min_cycle;Max_cycle;Signal;HPM_P1;HPM_P2
2021/10/06 00:04:44;;;;;;;19.90;6.35;;;;;;;;;;5969965;23;20044;-57
2021/10/06 00:07:10;;;;;;;15.50;5.47;;;;;;;;;;5053689;28;20041;-52
2021/10/06 00:09:36;;;;;;;14.82;5.45;;;;;;;;;;5054027;28;20043;-58
2021/10/06 00:12:02;;;;;;;14.25;5.40;;;;;;;;;;5054334;28;20029;-53
2021/10/06 00:14:28;;;;;;;15.50;5.25;;;;;;;;;;5053751;28;20029;-54
2021/10/06 00:16:53;;;;;;;20.42;5.93;;;;;;;;;;5055125;28;20038;-55
2021/10/06 00:19:23;;;;;;;16.83;5.50;;;;;;;;;;5053647;28;20052;-52
2021/10/06 00:21:49;;;;;;;16.40;5.47;;;;;;;;;;5054173;28;20036;-51
2021/10/06 00:24:15;;;;;;;14.10;5.20;;;;;;;;;;5053800;28;20025;-52
2021/10/06 00:26:41;;;;;;;16.75;5.50;;;;;;;;;;5054276;28;20460;-51
2021/10/06 00:31:43;;;;;;;18.80;5.90;;;;;;;;;;5208400;22;20111;-67
2021/10/06 00:34:09;;;;;;;16.20;5.60;;;;;;;;;;5051784;28;20480;-66
2021/10/06 00:36:35;;;;;;;21.70;5.85;;;;;;;;;;5052983;28;20094;-66
2021/10/06 00:39:01;;;;;;;18.65;5.95;;;;;;;;;;5052944;28;20056;-65
2021/10/06 00:41:27;;;;;;;14.15;5.53;;;;;;;;;;5052646;28;20128;-66
2021/10/06 00:43:53;;;;;;;15.05;5.60;;;;;;;;;;5068728;22;20075;-54
2021/10/06 00:46:19;;;;;;;17.17;5.78;;;;;;;;;;5051775;28;20039;-53
2021/10/06 00:48:45;;;;;;;16.55;5.53;;;;;;;;;;5052332;28;20029;-52
2021/10/06 00:51:13;;;;;;;14.10;5.22;;;;;;;;;;5053229;28;20013;-53
2021/10/06 00:53:39;;;;;;;18.73;5.22;;;;;;;;;;5053644;28;20392;-56
2021/10/06 00:56:05;;;;;;;22.85;6.60;;;;;;;;;;5053471;28;20037;-53
2021/10/06 00:58:31;;;;;;;17.10;5.93;;;;;;;;;;5053466;28;20027;-58
2021/10/06 01:00:57;;;;;;;16.73;5.47;;;;;;;;;;5053188;28;20365;-54
2021/10/06 01:03:24;;;;;;;20.45;5.60;;;;;;;;;;5053170;28;20039;-52
2021/10/06 01:05:50;;;;;;;20.08;5.85;;;;;;;;;;5053134;28;20119;-53
2021/10/06 01:08:16;;;;;;;15.18;6.03;;;;;;;;;;5053112;28;20025;-56
2021/10/06 01:10:42;;;;;;;17.33;6.57;;;;;;;;;;5051522;28;20559;-53
2021/10/06 01:13:08;;;;;;;19.50;6.40;;;;;;;;;;5053072;28;20449;-52
2021/10/06 01:15:34;;;;;;;16.58;5.93;;;;;;;;;;5053128;28;20021;-55
2021/10/06 01:18:01;;;;;;;18.63;6.00;;;;;;;;;;5052005;28;20040;-54
2021/10/06 01:20:28;;;;;;;19.67;6.13;;;;;;;;;;5052630;28;20029;-55
2021/10/06 01:22:54;;;;;;;16.25;5.85;;;;;;;;;;5053356;28;20025;-55
2021/10/06 01:25:20;;;;;;;17.38;6.03;;;;;;;;;;5053819;28;20036;-56
2021/10/06 01:27:46;;;;;;;18.88;6.57;;;;;;;;;;5053482;28;20040;-57
2021/10/06 01:30:14;;;;;;;16.25;6.00;;;;;;;;;;5053454;28;20025;-57
2021/10/06 01:32:41;;;;;;;17.08;5.60;;;;;;;;;;5053048;28;20020;-54
2021/10/06 01:35:09;;;;;;;14.95;5.80;;;;;;;;;;5052801;28;20040;-56
2021/10/06 01:37:35;;;;;;;14.93;5.70;;;;;;;;;;5051381;28;20044;-51
2021/10/06 01:40:03;;;;;;;18.10;6.05;;;;;;;;;;5052386;28;20364;-55
2021/10/06 01:42:29;;;;;;;15.47;5.57;;;;;;;;;;5052648;28;20044;-52
2021/10/06 01:44:55;;;;;;;15.10;5.55;;;;;;;;;;5052616;28;20025;-52
2021/10/06 01:47:22;;;;;;;16.45;5.30;;;;;;;;;;5052562;28;20454;-57
2021/10/06 01:49:49;;;;;;;15.48;5.10;;;;;;;;;;5052289;28;20104;-55
2021/10/06 01:52:18;;;;;;;18.70;5.30;;;;;;;;;;5051250;28;20025;-54
2021/10/06 01:54:44;;;;;;;15.50;5.55;;;;;;;;;;5051140;28;20492;-56
2021/10/06 01:57:11;;;;;;;15.40;5.03;;;;;;;;;;5052524;28;20096;-54
2021/10/06 01:59:37;;;;;;;17.58;5.28;;;;;;;;;;5051019;28;20494;-53
2021/10/06 02:02:03;;;;;;;19.90;4.80;;;;;;;;;;5052254;28;20033;-56
2021/10/06 02:04:29;;;;;;;15.20;4.95;;;;;;;;;;5052425;28;20029;-52
2021/10/06 02:06:55;;;;;;;18.15;5.72;;;;;;;;;;5052255;28;20367;-56
2021/10/06 02:09:21;;;;;;;18.10;4.97;;;;;;;;;;5052364;28;20025;-56
2021/10/06 02:11:47;;;;;;;19.90;5.50;;;;;;;;;;5052339;28;20092;-56
2021/10/06 02:14:14;;;;;;;12.95;4.70;;;;;;;;;;5051047;28;20024;-55
2021/10/06 02:16:40;;;;;;;16.10;5.25;;;;;;;;;;5050889;28;20029;-51
2021/10/06 02:19:07;;;;;;;15.10;4.72;;;;;;;;;;5051015;28;20064;-50
2021/10/06 02:21:34;;;;;;;19.45;5.75;;;;;;;;;;5052035;28;20037;-54
2021/10/06 02:24:00;;;;;;;18.33;5.53;;;;;;;;;;5050918;28;20036;-53
2021/10/06 02:26:26;;;;;;;13.82;4.78;;;;;;;;;;5051092;28;20088;-51
2021/10/06 02:28:52;;;;;;;15.45;5.30;;;;;;;;;;5051928;28;20137;-50
2021/10/06 02:31:18;;;;;;;15.93;5.03;;;;;;;;;;5050763;28;20472;-51
2021/10/06 02:33:44;;;;;;;19.02;4.97;;;;;;;;;;5050837;28;20460;-55
2021/10/06 02:36:10;;;;;;;13.88;5.45;;;;;;;;;;5052054;28;20025;-56
2021/10/06 02:38:36;;;;;;;18.73;5.43;;;;;;;;;;5050877;28;20021;-54
2021/10/06 02:41:02;;;;;;;17.48;5.35;;;;;;;;;;5051740;28;20387;-55
2021/10/06 02:43:28;;;;;;;15.57;5.57;;;;;;;;;;5050327;28;20120;-57
2021/10/06 02:45:54;;;;;;;17.13;6.05;;;;;;;;;;5050360;28;20085;-57
2021/10/06 02:48:21;;;;;;;15.80;5.60;;;;;;;;;;5051694;28;20025;-56
2021/10/06 02:50:48;;;;;;;13.75;5.53;;;;;;;;;;5050128;28;20112;-53
2021/10/06 02:53:14;;;;;;;13.00;5.03;;;;;;;;;;5051628;28;20033;-56
2021/10/06 02:55:40;;;;;;;16.52;5.07;;;;;;;;;;5050305;28;20025;-54
2021/10/06 02:58:06;;;;;;;14.23;4.80;;;;;;;;;;5051567;28;20029;-51
2021/10/06 03:00:32;;;;;;;18.08;5.63;;;;;;;;;;5051102;28;20025;-52
2021/10/06 03:02:58;;;;;;;19.02;6.15;;;;;;;;;;5051587;28;20033;-54
2021/10/06 03:05:24;;;;;;;16.90;5.18;;;;;;;;;;5050925;28;20107;-51
2021/10/06 03:07:50;;;;;;;15.57;5.45;;;;;;;;;;5051548;28;20469;-53
2021/10/06 03:10:15;;;;;;;16.35;5.30;;;;;;;;;;5051328;28;20036;-53
2021/10/06 03:12:42;;;;;;;19.08;5.50;;;;;;;;;;5051301;28;20021;-53
2021/10/06 03:15:09;;;;;;;14.63;5.30;;;;;;;;;;5051517;28;20083;-53
2021/10/06 03:17:35;;;;;;;16.80;5.15;;;;;;;;;;5050120;28;20029;-52
2021/10/06 03:20:01;;;;;;;14.57;4.90;;;;;;;;;;5051276;28;20025;-52
2021/10/06 03:22:27;;;;;;;18.33;5.72;;;;;;;;;;5051526;28;20510;-51
2021/10/06 03:24:53;;;;;;;18.10;5.70;;;;;;;;;;5051308;28;20113;-57
2021/10/06 03:27:19;;;;;;;24.80;5.78;;;;;;;;;;5050157;28;20137;-52
2021/10/06 03:29:45;;;;;;;16.85;5.45;;;;;;;;;;5049857;28;20369;-53
2021/10/06 03:32:12;;;;;;;14.98;5.15;;;;;;;;;;5051441;28;20078;-55
2021/10/06 03:34:38;;;;;;;17.23;5.25;;;;;;;;;;5051426;28;20380;-54
2021/10/06 03:37:04;;;;;;;16.92;5.15;;;;;;;;;;5050047;28;20078;-54
2021/10/06 03:39:30;;;;;;;18.48;5.50;;;;;;;;;;5051003;28;20040;-52
2021/10/06 03:41:56;;;;;;;17.55;5.80;;;;;;;;;;5054875;28;20388;-50
2021/10/06 03:44:22;;;;;;;18.10;5.90;;;;;;;;;;5053493;28;20037;-54
2021/10/06 03:46:47;;;;;;;16.77;5.32;;;;;;;;;;5054897;28;20035;-54
2021/10/06 03:49:14;;;;;;;16.90;5.53;;;;;;;;;;5053231;28;20078;-51
2021/10/06 03:51:39;;;;;;;13.75;5.28;;;;;;;;;;5053264;28;20440;-55
2021/10/06 03:54:06;;;;;;;14.70;5.35;;;;;;;;;;5054396;28;20044;-51
2021/10/06 03:56:32;;;;;;;17.33;5.55;;;;;;;;;;5054542;28;20052;-54
2021/10/06 03:58:57;;;;;;;16.67;5.55;;;;;;;;;;5054964;28;20056;-53
2021/10/06 04:01:23;;;;;;;15.55;5.07;;;;;;;;;;5054434;28;20465;-53
2021/10/06 04:03:49;;;;;;;17.35;5.63;;;;;;;;;;5054482;28;20036;-56
2021/10/06 04:06:15;;;;;;;14.82;5.55;;;;;;;;;;5054353;28;20535;-54
2021/10/06 04:08:41;;;;;;;21.10;6.65;;;;;;;;;;5054496;28;20032;-56
2021/10/06 04:11:07;;;;;;;17.25;7.03;;;;;;;;;;5052977;28;20059;-54
2021/10/06 04:13:33;;;;;;;14.80;5.40;;;;;;;;;;5054710;28;20621;-54
2021/10/06 04:15:59;;;;;;;18.17;6.70;;;;;;;;;;5054476;28;20068;-55
2021/10/06 04:18:25;;;;;;;26.27;6.28;;;;;;;;;;5054603;28;20021;-53
2021/10/06 04:20:51;;;;;;;14.88;5.50;;;;;;;;;;5053956;28;20100;-56
2021/10/06 04:23:17;;;;;;;16.33;5.60;;;;;;;;;;5054007;28;20021;-54
2021/10/06 04:25:43;;;;;;;17.05;5.65;;;;;;;;;;5052686;28;20083;-51
2021/10/06 04:28:09;;;;;;;15.38;5.95;;;;;;;;;;5052522;28;20029;-57
2021/10/06 04:30:35;;;;;;;17.02;5.88;;;;;;;;;;5053638;28;20036;-54
2021/10/06 04:33:02;;;;;;;18.58;5.88;;;;;;;;;;5052379;28;20021;-56
2021/10/06 04:35:28;;;;;;;16.67;5.50;;;;;;;;;;5053778;28;20033;-56
2021/10/06 04:37:54;;;;;;;19.35;6.20;;;;;;;;;;5053791;28;20052;-56
2021/10/06 04:40:20;;;;;;;16.08;5.53;;;;;;;;;;5052072;28;20025;-53
2021/10/06 04:42:46;;;;;;;17.00;5.28;;;;;;;;;;5053381;28;20028;-51
2021/10/06 04:45:13;;;;;;;16.88;5.45;;;;;;;;;;5053387;28;20028;-55
2021/10/06 04:47:39;;;;;;;17.38;5.93;;;;;;;;;;5053292;28;20025;-54
2021/10/06 04:50:06;;;;;;;16.95;6.32;;;;;;;;;;5053193;28;20040;-57
2021/10/06 04:52:32;;;;;;;14.13;5.53;;;;;;;;;;5052006;28;20029;-52
2021/10/06 04:54:58;;;;;;;27.25;5.90;;;;;;;;;;5052231;28;20052;-55
2021/10/06 04:57:24;;;;;;;18.75;6.32;;;;;;;;;;5052899;28;20037;-57
2021/10/06 04:59:50;;;;;;;16.15;5.30;;;;;;;;;;5051670;28;20032;-54
2021/10/06 05:02:16;;;;;;;18.33;6.93;;;;;;;;;;5052806;28;20027;-53
2021/10/06 05:04:42;;;;;;;17.33;5.47;;;;;;;;;;5052966;28;20112;-56
2021/10/06 05:07:08;;;;;;;16.42;5.50;;;;;;;;;;5052902;28;20128;-56
2021/10/06 05:09:34;;;;;;;18.40;5.82;;;;;;;;;;5052664;28;20492;-56
2021/10/06 05:12:00;;;;;;;17.27;5.80;;;;;;;;;;5052468;28;20063;-56
2021/10/06 05:14:30;;;;;;;18.38;5.88;;;;;;;;;;5052534;28;20096;-51
2021/10/06 05:16:56;;;;;;;17.27;5.80;;;;;;;;;;5052582;28;20025;-52
2021/10/06 05:19:22;;;;;;;22.05;5.90;;;;;;;;;;5050941;28;20342;-54
2021/10/06 05:21:48;;;;;;;15.63;5.95;;;;;;;;;;5052697;28;20060;-52
2021/10/06 05:24:14;;;;;;;17.90;6.40;;;;;;;;;;5050641;28;20025;-54
2021/10/06 05:26:40;;;;;;;15.20;5.53;;;;;;;;;;5050728;28;20036;-52
2021/10/06 05:29:06;;;;;;;14.95;5.65;;;;;;;;;;5051691;28;20017;-52
2021/10/06 05:31:32;;;;;;;17.23;5.28;;;;;;;;;;5051449;28;20344;-54
2021/10/06 05:33:58;;;;;;;20.23;6.20;;;;;;;;;;5050693;28;20112;-56
2021/10/06 05:36:24;;;;;;;17.48;5.72;;;;;;;;;;5051987;28;20029;-55
2021/10/06 05:38:51;;;;;;;19.73;5.80;;;;;;;;;;5049114;28;20407;-54
2021/10/06 05:41:16;;;;;;;18.83;6.40;;;;;;;;;;5051218;28;20086;-52
2021/10/06 05:43:43;;;;;;;17.20;5.75;;;;;;;;;;5051351;28;20347;-54
2021/10/06 05:46:09;;;;;;;16.80;5.68;;;;;;;;;;5051712;28;20096;-52
2021/10/06 05:48:35;;;;;;;16.80;6.90;;;;;;;;;;5051937;28;20556;-53
2021/10/06 05:51:01;;;;;;;16.73;5.75;;;;;;;;;;5051260;28;20036;-55
2021/10/06 05:53:30;;;;;;;15.80;5.65;;;;;;;;;;5051348;28;20025;-57
2021/10/06 05:55:56;;;;;;;16.60;5.30;;;;;;;;;;5050348;28;20017;-55
2021/10/06 05:58:23;;;;;;;15.82;5.32;;;;;;;;;;5051407;28;20025;-54
2021/10/06 06:00:49;;;;;;;14.50;5.10;;;;;;;;;;5050919;28;20024;-56
2021/10/06 06:03:15;;;;;;;18.52;6.18;;;;;;;;;;5049420;28;20453;-53
2021/10/06 06:05:41;;;;;;;15.13;5.13;;;;;;;;;;5049907;28;20107;-52
2021/10/06 06:08:07;;;;;;;16.63;5.47;;;;;;;;;;5051284;28;20029;-54
2021/10/06 06:10:34;;;;;;;17.08;4.90;;;;;;;;;;5050962;28;20120;-54
2021/10/06 06:13:00;;;;;;;16.40;5.38;;;;;;;;;;5050399;28;20071;-53
2021/10/06 06:15:26;;;;;;;16.85;5.45;;;;;;;;;;5051055;28;20032;-51
2021/10/06 06:17:52;;;;;;;17.23;5.30;;;;;;;;;;5050935;28;20124;-54
2021/10/06 06:20:25;;;;;;;15.27;5.65;;;;;;;;;;5050716;28;20056;-52
2021/10/06 06:22:52;;;;;;;15.75;5.15;;;;;;;;;;5051086;28;20028;-51
2021/10/06 06:25:18;;;;;;;16.27;5.57;;;;;;;;;;5050788;28;20113;-52
2021/10/06 06:27:44;;;;;;;20.10;6.82;;;;;;;;;;5050898;28;20482;-52
2021/10/06 06:30:10;;;;;;;19.98;5.47;;;;;;;;;;5050937;28;20029;-53
2021/10/06 06:32:36;;;;;;;22.48;7.05;;;;;;;;;;5049574;28;20050;-52
2021/10/06 06:35:02;;;;;;;16.05;5.55;;;;;;;;;;5049291;28;20029;-52
2021/10/06 06:37:28;;;;;;;15.35;5.40;;;;;;;;;;5048974;28;20025;-50
2021/10/06 06:39:54;;;;;;;17.52;5.43;;;;;;;;;;5050682;28;20040;-55
2021/10/06 06:42:20;;;;;;;14.52;4.97;;;;;;;;;;5049891;28;20558;-55
2021/10/06 06:44:46;;;;;;;16.48;5.13;;;;;;;;;;5054715;22;20049;-61
2021/10/06 06:47:12;;;;;;;15.48;4.90;;;;;;;;;;5029943;28;20349;-61
2021/10/06 06:49:38;;;;;;;17.55;4.95;;;;;;;;;;5030832;28;20029;-59
2021/10/06 06:52:04;;;;;;;17.00;5.05;;;;;;;;;;5029908;28;20017;-62
2021/10/06 06:54:30;;;;;;;15.63;5.45;;;;;;;;;;5031152;28;20365;-58
2021/10/06 06:56:56;;;;;;;16.10;4.85;;;;;;;;;;5031348;28;20029;-52
2021/10/06 06:59:22;;;;;;;15.77;5.38;;;;;;;;;;5031324;28;20026;-56
2021/10/06 07:01:48;;;;;;;13.70;4.78;;;;;;;;;;5031134;28;20037;-58
2021/10/06 07:04:15;;;;;;;14.07;5.55;;;;;;;;;;5031433;28;20120;-60
2021/10/06 07:06:41;;;;;;;15.15;5.47;;;;;;;;;;5030084;28;20030;-55
2021/10/06 07:09:07;;;;;;;16.55;5.22;;;;;;;;;;5030750;28;20448;-58
2021/10/06 07:11:34;;;;;;;17.48;6.35;;;;;;;;;;5029926;28;20018;-55
2021/10/06 07:14:00;;;;;;;16.42;5.75;;;;;;;;;;5031105;28;20030;-57
2021/10/06 07:16:26;;;;;;;17.80;5.57;;;;;;;;;;5034387;28;20412;-54
2021/10/06 07:18:52;;;;;;;16.67;5.90;;;;;;;;;;5034155;28;20397;-53
2021/10/06 07:21:18;;;;;;;16.58;4.90;;;;;;;;;;5033813;28;20025;-53
2021/10/06 07:23:44;;;;;;;17.45;6.22;;;;;;;;;;5034791;28;20017;-54
2021/10/06 07:26:16;;;;;;;16.55;4.78;;;;;;;;;;5034578;28;20103;-57
2021/10/06 07:28:42;;;;;;;17.83;6.05;;;;;;;;;;5033469;28;20536;-60
2021/10/06 07:31:08;;;;;;;18.95;6.20;;;;;;;;;;5033166;28;20037;-61
2021/10/06 07:33:34;;;;;;;18.60;5.50;;;;;;;;;;5033671;28;20099;-60
2021/10/06 07:36:00;;;;;;;12.45;4.90;;;;;;;;;;5035042;28;20029;-56
2021/10/06 07:38:26;;;;;;;16.95;5.75;;;;;;;;;;5033649;28;20380;-58
2021/10/06 07:40:52;;;;;;;15.68;5.47;;;;;;;;;;5034591;28;20060;-66
2021/10/06 07:43:18;;;;;;;16.77;5.60;;;;;;;;;;5034588;28;20029;-64
2021/10/06 07:45:44;;;;;;;19.83;6.43;;;;;;;;;;5034795;28;20022;-64
2021/10/06 07:48:10;;;;;;;16.75;5.60;;;;;;;;;;5035045;28;20119;-67
2021/10/06 07:50:36;;;;;;;14.73;5.20;;;;;;;;;;5034621;28;20032;-65
2021/10/06 07:53:02;;;;;;;15.77;5.53;;;;;;;;;;5034913;28;20053;-66
2021/10/06 07:55:28;;;;;;;17.85;7.07;;;;;;;;;;5034687;28;20032;-65
2021/10/06 07:57:56;;;;;;;13.63;5.00;;;;;;;;;;5033537;28;20021;-65
2021/10/06 08:00:22;;;;;;;14.10;4.93;;;;;;;;;;5033226;28;20395;-66
2021/10/06 08:02:49;;;;;;;15.27;5.10;;;;;;;;;;5034658;28;20037;-66
2021/10/06 08:05:15;;;;;;;15.02;5.05;;;;;;;;;;5033043;28;20021;-57
2021/10/06 08:07:41;;;;;;;12.93;5.07;;;;;;;;;;5034238;28;20047;-60
2021/10/06 08:10:07;;;;;;;13.75;5.13;;;;;;;;;;5032861;28;20315;-57
2021/10/06 08:12:34;;;;;;;14.38;5.05;;;;;;;;;;5032812;28;20025;-62
2021/10/06 08:15:00;;;;;;;13.07;4.95;;;;;;;;;;5032582;28;20101;-61
2021/10/06 08:17:26;;;;;;;15.95;5.05;;;;;;;;;;5034319;28;20037;-58
2021/10/06 08:19:52;;;;;;;15.13;5.22;;;;;;;;;;5032750;28;20026;-59
2021/10/06 08:22:19;;;;;;;21.50;6.90;;;;;;;;;;5033988;28;20392;-60
2021/10/06 08:24:45;;;;;;;19.00;5.57;;;;;;;;;;5033849;28;20034;-60
2021/10/06 08:27:13;;;;;;;13.95;5.38;;;;;;;;;;5033618;28;20030;-65
2021/10/06 08:29:39;;;;;;;15.47;4.93;;;;;;;;;;5032435;28;20298;-60
2021/10/06 08:32:05;;;;;;;13.98;4.60;;;;;;;;;;5032290;28;20018;-59
2021/10/06 08:34:31;;;;;;;16.35;4.85;;;;;;;;;;5033878;28;20080;-57
2021/10/06 08:36:57;;;;;;;11.95;4.63;;;;;;;;;;5033775;28;20025;-60
2021/10/06 08:39:23;;;;;;;14.63;4.85;;;;;;;;;;5032378;28;20400;-54
2021/10/06 08:41:49;;;;;;;11.73;4.50;;;;;;;;;;5033524;28;20057;-61
2021/10/06 08:44:16;;;;;;;13.60;4.53;;;;;;;;;;5033098;28;20127;-61
2021/10/06 08:46:43;;;;;;;13.68;4.50;;;;;;;;;;5032333;28;20033;-51
2021/10/06 08:49:09;;;;;;;21.08;5.63;;;;;;;;;;5033236;28;20021;-62
2021/10/06 08:51:35;;;;;;;15.57;5.80;;;;;;;;;;5031945;28;20025;-59
2021/10/06 08:54:01;;;;;;;13.38;4.70;;;;;;;;;;5033357;28;20405;-59
2021/10/06 08:56:29;;;;;;;16.13;5.20;;;;;;;;;;5032176;28;20394;-61
2021/10/06 08:58:55;;;;;;;16.27;4.90;;;;;;;;;;5032054;28;20030;-57
2021/10/06 09:01:21;;;;;;;12.90;4.78;;;;;;;;;;5033326;28;20036;-56
2021/10/06 09:03:53;;;;;;;10.90;4.35;;;;;;;;;;5032945;28;20053;-58
2021/10/06 09:06:19;;;;;;;13.13;4.43;;;;;;;;;;5033043;28;20092;-60
2021/10/06 09:08:45;;;;;;;11.20;4.72;;;;;;;;;;5032897;28;20182;-57
2021/10/06 09:11:12;;;;;;;12.95;5.05;;;;;;;;;;5032534;28;20017;-57
2021/10/06 09:13:40;;;;;;;14.60;4.53;;;;;;;;;;5032899;28;20031;-62
2021/10/06 09:16:06;;;;;;;12.48;4.93;;;;;;;;;;5032965;28;20441;-59
2021/10/06 09:18:33;;;;;;;12.55;3.90;;;;;;;;;;5031448;28;20107;-61
2021/10/06 09:21:01;;;;;;;13.25;4.32;;;;;;;;;;5032358;28;20021;-61
2021/10/06 09:23:29;;;;;;;14.85;4.63;;;;;;;;;;5031610;28;20032;-61
2021/10/06 09:25:59;;;;;;;12.05;4.10;;;;;;;;;;5032688;28;20041;-62
2021/10/06 09:28:26;;;;;;;14.55;4.40;;;;;;;;;;5031297;28;20034;-59
2021/10/06 09:31:02;;;;;;;10.27;3.95;;;;;;;;;;5032382;28;20021;-61
2021/10/06 09:33:43;;;;;;;11.85;4.38;;;;;;;;;;5032626;28;20026;-56
2021/10/06 09:36:13;;;;;;;11.10;4.20;;;;;;;;;;5031135;28;20021;-57
2021/10/06 09:38:47;;;;;;;11.88;4.07;;;;;;;;;;5030553;28;20112;-60
2021/10/06 09:41:31;;;;;;;13.20;4.18;;;;;;;;;;5032286;28;20177;-59
2021/10/06 09:44:05;;;;;;;14.68;4.80;;;;;;;;;;5032395;28;20033;-59
2021/10/06 09:46:35;;;;;;;15.75;4.75;;;;;;;;;;5031225;28;20037;-59
2021/10/06 09:49:01;;;;;;;13.32;4.30;;;;;;;;;;5030873;28;20442;-60
2021/10/06 09:51:27;;;;;;;17.52;4.93;;;;;;;;;;5031431;28;20076;-62
2021/10/06 09:53:54;;;;;;;13.18;4.40;;;;;;;;;;5031983;28;20068;-62
2021/10/06 09:56:20;;;;;;;14.30;4.40;;;;;;;;;;5030430;28;20021;-60
2021/10/06 09:58:47;;;;;;;13.70;4.57;;;;;;;;;;5031921;28;20014;-61
2021/10/06 10:01:14;;;;;;;16.08;5.00;;;;;;;;;;5030093;28;20013;-59
2021/10/06 10:03:40;;;;;;;13.80;4.70;;;;;;;;;;5030985;28;20021;-62
2021/10/06 10:06:06;;;;;;;15.88;5.30;;;;;;;;;;5030936;28;20120;-61
2021/10/06 10:08:32;;;;;;;12.82;4.45;;;;;;;;;;5029997;28;20366;-61
2021/10/06 10:10:58;;;;;;;13.93;4.45;;;;;;;;;;5030805;28;20116;-60
2021/10/06 10:13:24;;;;;;;11.93;4.35;;;;;;;;;;5030757;28;20078;-62
2021/10/06 10:15:51;;;;;;;18.05;4.93;;;;;;;;;;5030047;28;20126;-60
2021/10/06 10:18:18;;;;;;;15.70;5.35;;;;;;;;;;5030945;28;20429;-58
2021/10/06 10:20:45;;;;;;;15.20;5.05;;;;;;;;;;5029966;28;20032;-59
2021/10/06 10:23:13;;;;;;;16.77;5.43;;;;;;;;;;5030410;28;20480;-59
2021/10/06 10:25:40;;;;;;;14.32;4.68;;;;;;;;;;5030347;28;20026;-60
2021/10/06 10:28:14;;;;;;;14.45;5.07;;;;;;;;;;5029854;28;20120;-58
2021/10/06 10:30:56;;;;;;;14.73;5.28;;;;;;;;;;5030272;28;20022;-60
2021/10/06 10:33:42;;;;;;;14.32;5.07;;;;;;;;;;5031483;28;20100;-60
2021/10/06 10:36:27;;;;;;;13.90;5.13;;;;;;;;;;5030572;28;20022;-59
2021/10/06 10:38:53;;;;;;;18.80;5.30;;;;;;;;;;5031701;28;20032;-59
2021/10/06 10:41:37;;;;;;;15.82;6.43;;;;;;;;;;5030806;28;20029;-58
2021/10/06 10:44:06;;;;;;;17.50;5.80;;;;;;;;;;5031038;28;20033;-61
2021/10/06 10:46:51;;;;;;;19.70;6.50;;;;;;;;;;5031196;28;20022;-60
2021/10/06 10:49:17;;;;;;;15.75;6.05;;;;;;;;;;5033040;28;20049;-61
2021/10/06 10:51:45;;;;;;;14.40;5.75;;;;;;;;;;5033574;28;20099;-52
2021/10/06 10:54:12;;;;;;;16.17;6.05;;;;;;;;;;5033798;28;20128;-59
2021/10/06 10:56:39;;;;;;;16.60;8.40;;;;;;;;;;5035284;28;20076;-59
2021/10/06 10:59:06;;;;;;;17.27;9.05;;;;;;;;;;5033922;28;20025;-56
2021/10/06 11:01:43;;;;;;;16.13;9.75;;;;;;;;;;5034018;28;20064;-59
2021/10/06 11:04:12;;;;;;;18.00;10.05;;;;;;;;;;5035057;28;20040;-57
2021/10/06 11:06:42;;;;;;;16.70;10.93;;;;;;;;;;5034349;28;20072;-58
2021/10/06 11:09:26;;;;;;;18.85;10.18;;;;;;;;;;5034573;28;20056;-50
2021/10/06 11:11:53;;;;;;;15.52;9.18;;;;;;;;;;5034497;28;20075;-59
2021/10/06 11:14:20;;;;;;;17.33;9.50;;;;;;;;;;5035159;28;20485;-57
2021/10/06 11:17:06;;;;;;;19.15;10.38;;;;;;;;;;5034928;28;20022;-60
2021/10/06 11:19:43;;;;;;;17.95;8.90;;;;;;;;;;5035070;28;20052;-59
2021/10/06 11:22:24;;;;;;;17.90;9.93;;;;;;;;;;5034867;28;20144;-60
2021/10/06 11:24:51;;;;;;;16.42;9.40;;;;;;;;;;5034895;28;20032;-60
2021/10/06 11:27:17;;;;;;;16.95;9.98;;;;;;;;;;5034854;28;20390;-60
2021/10/06 11:29:43;;;;;;;16.95;9.18;;;;;;;;;;5034422;28;20021;-60
2021/10/06 11:32:09;;;;;;;18.10;9.60;;;;;;;;;;5034371;28;20025;-53
2021/10/06 11:34:46;;;;;;;18.38;9.98;;;;;;;;;;5032898;28;20022;-60
2021/10/06 11:37:18;;;;;;;17.60;9.35;;;;;;;;;;5034538;28;20029;-61
2021/10/06 11:39:45;;;;;;;16.20;9.23;;;;;;;;;;5034175;28;20109;-59
2021/10/06 11:42:11;;;;;;;18.35;10.55;;;;;;;;;;5034252;28;20110;-61
2021/10/06 11:44:38;;;;;;;16.35;10.35;;;;;;;;;;5034522;28;20033;-60
2021/10/06 11:47:05;;;;;;;16.65;9.95;;;;;;;;;;5033074;28;20095;-59
2021/10/06 11:49:32;;;;;;;17.60;10.30;;;;;;;;;;5033129;28;20441;-59
2021/10/06 11:51:59;;;;;;;18.92;11.50;;;;;;;;;;5034542;28;20432;-56
2021/10/06 11:54:25;;;;;;;17.85;8.65;;;;;;;;;;5034273;28;20029;-61
2021/10/06 11:56:52;;;;;;;15.95;7.97;;;;;;;;;;5034572;28;20113;-61
2021/10/06 11:59:19;;;;;;;17.55;8.55;;;;;;;;;;5034791;28;20469;-60
2021/10/06 12:01:57;;;;;;;17.05;7.82;;;;;;;;;;5033239;28;20100;-59
2021/10/06 12:04:33;;;;;;;17.42;7.97;;;15.90;99.90;;;;;;5034185;28;20026;-62
2021/10/06 12:07:01;;;;;;;14.98;7.55;;;12.20;99.90;;;;;;5034557;28;20029;-58
2021/10/06 12:09:49;;;;;;;17.70;7.95;;;12.20;99.90;;;;;;5033675;28;20672;-59
2021/10/06 12:12:19;;;;;;;;;;;12.30;99.90;;;;;;5033074;28;20103;-61
2021/10/06 12:14:47;;;;;;;16.13;6.97;;;12.30;99.90;;;;;;5032647;28;19947;-59
2021/10/06 12:17:21;;;;;;;15.57;7.00;;;12.60;99.90;;;;;;5032737;28;20045;-59
2021/10/06 12:20:11;;;;;;;14.05;6.53;;;12.60;99.90;;;;;;5031899;28;20114;-60
2021/10/06 12:22:38;;;;;;;15.25;7.10;;;12.40;99.90;;;;;;5031560;28;20077;-56
2021/10/06 12:25:07;;;;;;;17.38;7.35;;;12.40;99.90;;;;;;5032995;28;20426;-56
2021/10/06 12:27:35;;;;;;;16.05;8.23;;;12.50;99.90;;;;;;5032053;28;20034;-59
2021/10/06 12:30:07;;;;;;;17.80;7.80;;;12.30;99.90;;;;;;5029704;28;20018;-57
2021/10/06 12:32:33;;;;;;;18.08;8.18;;;12.20;99.90;;;;;;5031920;28;20027;-57
2021/10/06 12:35:18;;;;;;;17.85;8.07;;;12.10;99.90;;;;;;5034021;28;20390;-59
2021/10/06 12:37:55;;;;;;;16.90;8.25;;;12.20;99.90;;;;;;5014046;28;20029;-60
2021/10/06 12:40:31;;;;;;;16.45;8.90;;;12.20;99.90;;;;;;5014459;28;20032;-57
2021/10/06 12:43:21;;;;;;;18.88;9.10;;;12.20;99.90;;;;;;5033209;28;20029;-58
2021/10/06 12:46:07;;;;;;;15.88;8.15;;;12.20;99.90;;;;;;5052000;22;20112;-59
2021/10/06 12:48:39;;;;;;;17.35;9.18;;;12.00;99.90;;;;;;5033230;28;20091;-58
2021/10/06 12:51:08;;;;;;;17.40;9.00;;;12.00;99.90;;;;;;5033055;28;20366;-58
2021/10/06 12:53:34;;;;;;;;;;;12.00;99.90;;;;;;5033515;28;20065;-58
2021/10/06 12:56:00;;;;;;;16.15;8.35;;;11.90;99.90;;;;;;5032179;28;19905;-54
2021/10/06 12:58:26;;;;;;;18.15;9.35;;;11.90;99.90;;;;;;5032178;28;20136;-60
2021/10/06 13:00:52;;;;;;;16.33;8.70;;;12.00;99.90;;;;;;5031757;28;20064;-59
2021/10/06 13:03:18;;;;;;;18.15;9.80;;;12.00;99.90;;;;;;5032983;28;20025;-59
2021/10/06 13:05:44;;;;;;;17.17;9.32;;;12.00;99.90;;;;;;5031793;28;20053;-57
2021/10/06 13:08:17;;;;;;;17.20;9.68;;;11.90;99.90;;;;;;5032583;28;20097;-60
2021/10/06 13:10:43;;;;;;;18.15;10.00;;;11.90;99.90;;;;;;5032484;28;20096;-59
2021/10/06 13:13:09;;;;;;;18.27;10.45;;;11.90;99.90;;;;;;5030836;28;20026;-57
2021/10/06 13:15:35;;;;;;;18.23;9.63;;;11.90;99.90;;;;;;5031246;28;20415;-57
2021/10/06 13:18:02;;;;;;;19.08;10.35;;;11.90;99.90;;;;;;5032375;28;20025;-58
2021/10/06 13:20:28;;;;;;;18.60;10.07;;;11.90;99.90;;;;;;5032336;28;20035;-55
2021/10/06 13:22:53;;;;;;;17.38;9.18;;;12.00;99.90;;;;;;5031450;28;20021;-59
2021/10/06 13:25:19;;;;;;;20.38;9.95;;;12.00;99.90;;;;;;5031210;28;20488;-62
2021/10/06 13:27:44;;;;;;;20.73;10.45;;;12.00;99.90;;;;;;5032523;28;20061;-60
2021/10/06 13:30:14;;;;;;;18.98;10.40;;;12.00;99.90;;;;;;5032156;28;20030;-59
2021/10/06 13:32:40;;;;;;;18.95;9.65;;;12.00;99.90;;;;;;5032568;28;20449;-56
2021/10/06 13:35:06;;;;;;;18.42;10.05;;;12.00;99.90;;;;;;5032310;28;20025;-59
2021/10/06 13:37:32;;;;;;;20.70;10.90;;;12.00;99.90;;;;;;5032421;28;20174;-55
2021/10/06 13:39:58;;;;;;;18.80;11.07;;;11.90;99.90;;;;;;5031901;28;20512;-58
2021/10/06 13:42:26;;;;;;;19.75;11.85;;;;;;;;;;5030640;28;20116;-60
2021/10/06 13:44:52;;;;;;;21.08;11.25;;;11.90;99.90;;;;;;5029802;28;20045;-57
2021/10/06 13:47:17;;;;;;;20.70;10.35;;;12.00;99.90;;;;;;5029660;28;20033;-54
2021/10/06 13:49:43;;;;;;;23.58;10.98;;;11.90;99.90;;;;;;5031026;28;20492;-56
2021/10/06 13:52:08;;;;;;;18.67;11.13;;;12.00;99.90;;;;;;5031692;28;20032;-59
2021/10/06 13:54:34;;;;;;;19.15;10.45;;;12.00;99.90;;;;;;5031853;28;20021;-56
2021/10/06 13:57:00;;;;;;;22.17;10.85;;;12.00;99.90;;;;;;5032065;28;20112;-55
2021/10/06 13:59:25;;;;;;;19.67;10.43;;;12.00;99.90;;;;;;5030509;28;20022;-60
2021/10/06 14:01:51;;;;;;;23.10;11.00;;;11.90;99.90;;;;;;5032090;28;20047;-58
2021/10/06 14:04:17;;;;;;;19.60;11.02;;;12.00;99.90;;;;;;5031845;28;20037;-60
2021/10/06 14:06:42;;;;;;;18.35;10.48;;;12.00;99.90;;;;;;5031924;28;20083;-59
2021/10/06 14:09:08;;;;;;;21.85;11.48;;;12.00;99.90;;;;;;5030319;28;20048;-62
2021/10/06 14:11:34;;;;;;;21.52;11.73;;;12.10;99.90;;;;;;5031740;28;20469;-57
2021/10/06 14:13:59;;;;;;;19.90;10.95;;;12.20;99.90;;;;;;5030172;28;20025;-57
2021/10/06 14:16:25;;;;;;;22.55;11.57;;;12.20;99.90;;;;;;5029845;28;20115;-61